createdAt,value
2023-08-02T00:01:22.909Z,26.23
2023-08-02T00:04:01.200Z,26.22
2023-08-02T00:06:35.551Z,26.22
2023-08-02T00:09:02.057Z,26.22
2023-08-02T00:11:28.510Z,26.22
2023-08-02T00:13:54.959Z,26.22
2023-08-02T00:16:21.469Z,26.22
2023-08-02T00:18:47.877Z,26.21
2023-08-02T00:21:14.286Z,26.21
2023-08-02T00:23:40.773Z,26.20
2023-08-02T00:26:07.227Z,26.21
2023-08-02T00:28:33.666Z,26.19
2023-08-02T00:31:00.154Z,26.20
2023-08-02T00:33:26.613Z,26.19
2023-08-02T00:35:55.209Z,26.18
2023-08-02T00:38:23.159Z,26.19
2023-08-02T00:40:50.182Z,26.18
2023-08-02T00:43:16.723Z,26.19
2023-08-02T00:45:43.233Z,26.16
2023-08-02T00:48:09.713Z,26.17
2023-08-02T00:50:37.127Z,26.17
2023-08-02T00:53:03.907Z,26.17
2023-08-02T00:55:30.370Z,26.15
2023-08-02T00:57:58.033Z,26.17
2023-08-02T01:00:24.533Z,26.16
2023-08-02T01:02:51.059Z,26.15
2023-08-02T01:05:18.554Z,26.16
2023-08-02T01:07:48.395Z,26.15
2023-08-02T01:10:26.462Z,26.14
2023-08-02T01:12:55.221Z,26.14
2023-08-02T01:15:21.879Z,26.13
2023-08-02T01:17:51.018Z,26.14
2023-08-02T01:20:17.458Z,26.13
2023-08-02T01:22:44.033Z,26.13
2023-08-02T01:25:10.712Z,26.12
2023-08-02T01:27:45.191Z,26.12
2023-08-02T01:30:15.271Z,26.12
2023-08-02T01:32:41.799Z,26.12
2023-08-02T01:35:09.728Z,26.12
2023-08-02T01:37:36.760Z,26.12
2023-08-02T01:40:04.082Z,26.11
2023-08-02T01:42:30.929Z,26.10
2023-08-02T01:44:57.379Z,26.11
2023-08-02T01:47:23.946Z,26.10
2023-08-02T01:49:50.908Z,26.10
2023-08-02T01:52:17.327Z,26.10
2023-08-02T01:54:43.772Z,26.10
2023-08-02T01:57:10.265Z,26.09
2023-08-02T01:59:37.113Z,26.10
2023-08-02T02:02:03.644Z,26.08
2023-08-02T02:04:30.072Z,26.09
2023-08-02T02:06:56.702Z,26.09
2023-08-02T02:09:23.148Z,26.08
2023-08-02T02:11:50.364Z,26.08
2023-08-02T02:14:16.775Z,26.08
2023-08-02T02:16:43.465Z,26.07
2023-08-02T02:19:10.069Z,26.07
2023-08-02T02:21:37.093Z,26.06
2023-08-02T02:24:03.739Z,26.06
2023-08-02T02:26:30.152Z,26.05
2023-08-02T02:28:56.576Z,26.05
2023-08-02T02:31:23.029Z,26.05
2023-08-02T02:33:49.440Z,26.05
2023-08-02T02:36:15.854Z,26.05
2023-08-02T02:38:42.277Z,26.04
2023-08-02T02:41:08.726Z,26.04
2023-08-02T02:43:35.134Z,26.03
2023-08-02T02:46:01.604Z,26.04
2023-08-02T02:48:28.052Z,26.02
2023-08-02T02:50:54.467Z,26.02
2023-08-02T02:53:21.960Z,26.02
2023-08-02T02:55:48.470Z,26.00
2023-08-02T02:58:14.853Z,26.02
2023-08-02T03:00:41.313Z,26.01
2023-08-02T03:03:07.763Z,26.01
2023-08-02T03:05:34.191Z,26.01
2023-08-02T03:08:00.723Z,26.01
2023-08-02T03:10:27.261Z,26.00
2023-08-02T03:12:53.702Z,25.99
2023-08-02T03:15:20.101Z,25.99
2023-08-02T03:17:46.557Z,25.99
2023-08-02T03:20:13.034Z,25.97
2023-08-02T03:22:39.483Z,25.98
2023-08-02T03:25:06.048Z,25.98
2023-08-02T03:27:32.448Z,25.98
2023-08-02T03:29:58.912Z,25.97
2023-08-02T03:32:25.380Z,25.96
2023-08-02T03:34:51.805Z,25.97
2023-08-02T03:37:18.388Z,25.97
2023-08-02T03:39:44.781Z,25.95
2023-08-02T03:42:11.258Z,25.95
2023-08-02T03:44:37.802Z,25.94
2023-08-02T03:47:04.316Z,25.95
2023-08-02T03:49:30.777Z,25.95
2023-08-02T03:51:57.250Z,25.95
2023-08-02T03:54:23.724Z,25.94
2023-08-02T03:56:50.224Z,25.94
2023-08-02T03:59:16.647Z,25.94
2023-08-02T04:01:43.079Z,25.93
2023-08-02T04:04:10.600Z,25.94
2023-08-02T04:06:37.233Z,25.94
2023-08-02T04:09:03.747Z,25.92
2023-08-02T04:11:30.139Z,25.92
2023-08-02T04:13:56.611Z,25.92
2023-08-02T04:16:23.095Z,25.91
2023-08-02T04:18:49.564Z,25.91
2023-08-02T04:21:22.114Z,25.91
2023-08-02T04:23:50.331Z,25.91
2023-08-02T04:26:17.127Z,25.90
2023-08-02T04:28:43.565Z,25.89
2023-08-02T04:31:10.096Z,25.90
2023-08-02T04:33:36.529Z,25.89
2023-08-02T04:36:03.099Z,25.89
2023-08-02T04:38:29.582Z,25.89
2023-08-02T04:40:57.104Z,25.86
2023-08-02T04:43:23.550Z,25.88
2023-08-02T04:45:50.008Z,25.85
2023-08-02T04:48:16.486Z,25.87
2023-08-02T04:50:44.288Z,25.86
2023-08-02T04:53:10.742Z,25.86
2023-08-02T04:55:46.768Z,25.86
2023-08-02T04:58:13.472Z,25.86
2023-08-02T05:00:39.906Z,25.85
2023-08-02T05:03:07.126Z,25.85
2023-08-02T05:05:33.725Z,25.84
2023-08-02T05:08:00.541Z,25.84
2023-08-02T05:10:26.990Z,25.84
2023-08-02T05:12:53.430Z,25.83
2023-08-02T05:15:19.921Z,25.83
2023-08-02T05:17:46.480Z,25.83
2023-08-02T05:20:13.034Z,25.83
2023-08-02T05:22:39.465Z,25.83
2023-08-02T05:25:07.614Z,25.82
2023-08-02T05:27:34.011Z,25.81
2023-08-02T05:30:00.586Z,25.81
2023-08-02T05:32:27.099Z,25.81
2023-08-02T05:34:53.539Z,25.81
2023-08-02T05:37:21.525Z,25.80
2023-08-02T05:39:47.991Z,25.80
2023-08-02T05:42:14.489Z,25.80
2023-08-02T05:44:40.944Z,25.81
2023-08-02T05:47:07.427Z,25.79
2023-08-02T05:49:33.813Z,25.80
2023-08-02T05:52:00.234Z,25.79
2023-08-02T05:54:26.669Z,25.78
2023-08-02T05:56:53.091Z,25.78
2023-08-02T05:59:19.507Z,25.78
2023-08-02T06:01:46.322Z,25.78
2023-08-02T06:04:13.013Z,25.78
2023-08-02T06:06:39.597Z,25.78
2023-08-02T06:09:08.067Z,25.77
2023-08-02T06:11:36.190Z,25.77
2023-08-02T06:14:02.619Z,25.76
2023-08-02T06:16:29.085Z,25.76
2023-08-02T06:18:55.486Z,25.76
2023-08-02T06:21:24.055Z,25.75
2023-08-02T06:23:51.085Z,25.74
2023-08-02T06:26:19.431Z,25.75
2023-08-02T06:28:46.030Z,25.75
2023-08-02T06:31:12.500Z,25.75
2023-08-02T06:33:38.987Z,25.74
2023-08-02T06:36:05.832Z,25.74
2023-08-02T06:38:33.600Z,25.74
2023-08-02T06:41:00.071Z,25.74
2023-08-02T06:43:26.514Z,25.73
2023-08-02T06:45:52.947Z,25.74
2023-08-02T06:48:20.386Z,25.72
2023-08-02T06:50:47.206Z,25.73
2023-08-02T06:53:13.686Z,25.72
2023-08-02T06:55:40.098Z,25.72
2023-08-02T06:58:06.519Z,25.72
2023-08-02T07:00:34.245Z,25.71
2023-08-02T07:03:01.509Z,25.72
2023-08-02T07:05:30.395Z,25.72
2023-08-02T07:07:57.755Z,25.71
2023-08-02T07:10:25.164Z,25.71
2023-08-02T07:12:51.589Z,25.71
2023-08-02T07:15:18.581Z,25.71
2023-08-02T07:17:45.537Z,25.70
2023-08-02T07:20:12.807Z,25.71
2023-08-02T07:22:43.934Z,25.71
2023-08-02T07:25:10.818Z,25.70
2023-08-02T07:27:38.033Z,25.69
2023-08-02T07:30:04.828Z,25.70
2023-08-02T07:32:34.087Z,25.69
2023-08-02T07:35:00.645Z,25.69
2023-08-02T07:37:27.281Z,25.69
2023-08-02T07:39:53.876Z,25.68
2023-08-02T07:42:20.361Z,25.68
2023-08-02T07:45:01.124Z,25.68
2023-08-02T07:47:27.550Z,25.68
2023-08-02T07:49:54.042Z,25.67
2023-08-02T07:52:20.511Z,25.68
2023-08-02T07:54:55.920Z,25.67
2023-08-02T07:57:26.787Z,25.67
2023-08-02T07:59:53.530Z,25.67
2023-08-02T08:02:20.689Z,25.66
2023-08-02T08:04:47.201Z,25.66
2023-08-02T08:07:13.939Z,25.66
2023-08-02T08:09:40.362Z,25.66
2023-08-02T08:12:07.134Z,25.66
2023-08-02T08:14:34.210Z,25.66
2023-08-02T08:17:01.559Z,25.66
2023-08-02T08:19:28.387Z,25.65
2023-08-02T08:21:55.380Z,25.66
2023-08-02T08:24:21.887Z,25.65
2023-08-02T08:26:48.354Z,25.66
2023-08-02T08:29:14.832Z,25.66
2023-08-02T08:31:43.973Z,25.66
2023-08-02T08:34:11.431Z,25.66
2023-08-02T08:36:37.933Z,25.67
2023-08-02T08:39:04.769Z,25.66
2023-08-02T08:41:31.310Z,25.67
2023-08-02T08:43:58.064Z,25.67
2023-08-02T08:46:25.425Z,25.66
2023-08-02T08:48:51.917Z,25.66
2023-08-02T08:51:21.255Z,25.66
2023-08-02T08:53:49.065Z,25.66
2023-08-02T08:56:15.727Z,25.67
2023-08-02T08:58:42.514Z,25.66
2023-08-02T09:01:09.168Z,25.67
2023-08-02T09:03:35.808Z,25.66
2023-08-02T09:06:03.320Z,25.67
2023-08-02T09:08:30.375Z,25.66
2023-08-02T09:10:56.770Z,25.66
2023-08-02T09:13:23.992Z,25.68
2023-08-02T09:16:10.207Z,25.67
2023-08-02T09:18:43.764Z,25.67
2023-08-02T09:21:12.192Z,25.67
2023-08-02T09:23:38.732Z,25.68
2023-08-02T09:26:10.636Z,25.68
2023-08-02T09:28:37.551Z,25.68
2023-08-02T09:31:16.828Z,25.68
2023-08-02T09:33:50.620Z,25.67
2023-08-02T09:36:27.903Z,25.68
2023-08-02T09:38:55.198Z,25.70
2023-08-02T09:41:47.984Z,25.69
2023-08-02T09:44:09.850Z,25.70
2023-08-02T09:46:37.043Z,25.70
2023-08-02T09:49:17.123Z,25.72
2023-08-02T09:51:45.046Z,25.71
2023-08-02T09:54:12.603Z,25.74
2023-08-02T09:56:39.956Z,25.75
2023-08-02T09:59:06.988Z,25.75
2023-08-02T10:01:34.288Z,25.78
2023-08-02T10:04:03.256Z,25.77
2023-08-02T10:06:32.594Z,25.78
2023-08-02T10:09:01.578Z,25.78
2023-08-02T10:11:28.499Z,25.78
2023-08-02T10:13:55.989Z,25.79
2023-08-02T10:16:24.655Z,25.79
2023-08-02T10:18:52.328Z,25.79
2023-08-02T10:21:19.692Z,25.80
2023-08-02T10:23:46.665Z,25.79
2023-08-02T10:26:13.161Z,25.80
2023-08-02T10:28:41.962Z,25.81
2023-08-02T10:31:10.110Z,25.80
2023-08-02T10:33:36.871Z,25.81
2023-08-02T10:36:03.934Z,25.81
2023-08-02T10:38:39.502Z,25.82
2023-08-02T10:41:16.561Z,25.83
2023-08-02T10:43:55.338Z,25.81
2023-08-02T10:46:24.095Z,25.84
2023-08-02T10:48:50.668Z,25.85
2023-08-02T10:51:33.993Z,25.85
2023-08-02T10:54:17.113Z,25.85
2023-08-02T10:56:52.839Z,25.87
2023-08-02T10:59:37.027Z,25.86
2023-08-02T11:02:08.288Z,25.88
2023-08-02T11:04:38.983Z,25.88
2023-08-02T11:07:36.120Z,25.89
2023-08-02T11:10:05.388Z,25.90
2023-08-02T11:12:33.266Z,25.92
2023-08-02T11:14:59.733Z,25.92
2023-08-02T11:22:26.998Z,25.94
2023-08-02T11:24:57.684Z,25.93
2023-08-02T11:27:25.196Z,25.96
2023-08-02T11:30:01.833Z,25.97
2023-08-02T11:32:28.607Z,25.97
2023-08-02T11:34:55.321Z,25.97
2023-08-02T11:37:21.858Z,25.97
2023-08-02T11:42:25.209Z,26.00
2023-08-02T11:44:59.154Z,25.99
2023-08-02T11:47:39.370Z,25.99
2023-08-02T11:50:06.210Z,26.01
2023-08-02T11:52:33.427Z,26.01
2023-08-02T11:55:00.689Z,26.02
2023-08-02T11:57:27.601Z,26.03
2023-08-02T11:59:56.907Z,26.03
2023-08-02T12:02:30.540Z,26.04
2023-08-02T12:04:57.286Z,26.04
2023-08-02T12:07:30.955Z,26.05
2023-08-02T12:09:57.518Z,26.06
2023-08-02T12:12:30.092Z,26.07
2023-08-02T12:14:56.870Z,26.07
2023-08-02T12:17:23.768Z,26.08
2023-08-02T12:19:50.561Z,26.09
2023-08-02T12:22:18.177Z,26.11
2023-08-02T12:24:44.691Z,26.10
2023-08-02T12:27:18.236Z,26.12
2023-08-02T12:29:45.285Z,26.13
2023-08-02T12:32:24.004Z,26.13
2023-08-02T12:34:57.880Z,26.15
2023-08-02T12:37:28.445Z,26.17
2023-08-02T12:39:55.044Z,26.16
2023-08-02T12:42:21.660Z,26.17
2023-08-02T12:44:48.102Z,26.19
2023-08-02T12:47:14.693Z,26.19
2023-08-02T12:49:41.161Z,26.20
2023-08-02T12:52:07.672Z,26.22
2023-08-02T12:54:34.280Z,26.21
2023-08-02T12:57:00.845Z,26.23
2023-08-02T12:59:27.262Z,26.24
2023-08-02T13:01:53.776Z,26.24
2023-08-02T13:04:20.374Z,26.25
2023-08-02T13:06:55.359Z,26.26
2023-08-02T13:09:22.606Z,26.27
2023-08-02T13:11:49.076Z,26.28
2023-08-02T13:14:15.522Z,26.29
2023-08-02T13:16:42.232Z,26.30
2023-08-02T13:19:08.735Z,26.31
2023-08-02T13:21:35.179Z,26.32
2023-08-02T13:24:01.604Z,26.33
2023-08-02T13:26:28.026Z,26.35
2023-08-02T13:28:54.503Z,26.35
2023-08-02T13:31:21.000Z,26.36
2023-08-02T13:33:47.664Z,26.37
2023-08-02T13:36:14.135Z,26.38
2023-08-02T13:38:40.646Z,26.38
2023-08-02T13:41:07.086Z,26.40
2023-08-02T13:43:33.486Z,26.40
2023-08-02T13:45:59.954Z,26.43
2023-08-02T13:48:26.405Z,26.44
2023-08-02T13:50:52.798Z,26.44
2023-08-02T13:53:19.308Z,26.46
2023-08-02T13:55:45.748Z,26.45
2023-08-02T13:58:12.189Z,26.46
2023-08-02T14:00:38.628Z,26.47
2023-08-02T14:03:05.118Z,26.48
2023-08-02T14:05:31.634Z,26.49
2023-08-02T14:07:58.208Z,26.50
2023-08-02T14:10:24.695Z,26.50
2023-08-02T14:12:51.129Z,26.50
2023-08-02T14:15:17.505Z,26.52
2023-08-02T14:17:43.997Z,26.52
2023-08-02T14:20:10.690Z,26.52
2023-08-02T14:22:37.112Z,26.53
2023-08-02T14:25:03.764Z,26.53
2023-08-02T14:27:30.263Z,26.54
2023-08-02T14:29:56.720Z,26.55
2023-08-02T14:32:23.099Z,26.56
2023-08-02T14:34:49.922Z,26.54
2023-08-02T14:37:16.342Z,26.55
2023-08-02T14:39:42.864Z,26.55
2023-08-02T14:42:09.309Z,26.56
2023-08-02T14:44:35.753Z,26.56
2023-08-02T14:47:02.312Z,26.56
2023-08-02T14:49:28.839Z,26.57
2023-08-02T14:51:55.605Z,26.56
2023-08-02T14:54:22.048Z,26.57
2023-08-02T14:56:48.592Z,26.57
2023-08-02T14:59:14.989Z,26.57
2023-08-02T15:01:41.532Z,26.57
2023-08-02T15:04:08.792Z,26.57
2023-08-02T15:06:35.259Z,26.57
2023-08-02T15:09:01.680Z,26.58
2023-08-02T15:11:28.182Z,26.58
2023-08-02T15:13:54.576Z,26.57
2023-08-02T15:16:21.043Z,26.57
2023-08-02T15:18:47.623Z,26.58
2023-08-02T15:21:14.024Z,26.59
2023-08-02T15:23:40.415Z,26.57
2023-08-02T15:26:08.266Z,26.58
2023-08-02T15:28:34.700Z,26.58
2023-08-02T15:31:01.259Z,26.57
2023-08-02T15:33:27.851Z,26.58
2023-08-02T15:35:54.292Z,26.59
2023-08-02T15:38:20.721Z,26.58
2023-08-02T15:40:47.520Z,26.58
2023-08-02T15:43:13.993Z,26.58
2023-08-02T15:45:40.527Z,26.58
2023-08-02T15:48:06.982Z,26.59
2023-08-02T15:50:34.724Z,26.59
2023-08-02T15:53:01.149Z,26.58
2023-08-02T15:55:27.612Z,26.58
2023-08-02T15:57:54.010Z,26.57
2023-08-02T16:00:20.490Z,26.57
2023-08-02T16:02:47.035Z,26.57
2023-08-02T16:05:17.002Z,26.58
2023-08-02T16:07:43.438Z,26.58
2023-08-02T16:10:10.027Z,26.57
2023-08-02T16:12:36.473Z,26.57
2023-08-02T16:15:03.024Z,26.58
2023-08-02T16:17:29.473Z,26.57
2023-08-02T16:19:56.000Z,26.56
2023-08-02T16:22:22.410Z,26.57
2023-08-02T16:24:49.723Z,26.57
2023-08-02T16:27:16.125Z,26.56
2023-08-02T16:29:42.762Z,26.56
2023-08-02T16:32:09.197Z,26.57
2023-08-02T16:34:35.610Z,26.57
2023-08-02T16:37:02.417Z,26.56
2023-08-02T16:39:28.818Z,26.57
2023-08-02T16:41:55.269Z,26.57
2023-08-02T16:44:21.696Z,26.56
2023-08-02T16:46:48.137Z,26.55
2023-08-02T16:49:14.604Z,26.53
2023-08-02T16:51:41.295Z,26.50
2023-08-02T16:54:08.146Z,26.49
2023-08-02T16:56:34.634Z,26.47
2023-08-02T16:59:01.079Z,26.46
2023-08-02T17:01:27.559Z,26.46
2023-08-02T17:03:54.199Z,26.44
2023-08-02T17:06:20.749Z,26.37
2023-08-02T17:08:47.331Z,26.42
2023-08-02T17:11:13.754Z,26.42
2023-08-02T17:13:40.168Z,26.39
2023-08-02T17:16:06.702Z,26.35
2023-08-02T17:18:33.112Z,26.36
2023-08-02T17:20:59.635Z,26.35
2023-08-02T17:23:26.051Z,26.36
2023-08-02T17:25:52.517Z,26.36
2023-08-02T17:28:18.948Z,26.37
2023-08-02T17:30:46.683Z,26.32
2023-08-02T17:33:13.209Z,26.31
2023-08-02T17:35:39.692Z,26.34
2023-08-02T17:38:06.217Z,26.28
2023-08-02T17:40:32.672Z,26.26
2023-08-02T17:42:59.500Z,26.27
2023-08-02T17:45:27.599Z,26.30
2023-08-02T17:47:55.238Z,26.33
2023-08-02T17:50:21.759Z,26.34
2023-08-02T17:52:48.273Z,26.34
2023-08-02T17:55:14.740Z,26.34
2023-08-02T17:57:41.330Z,26.33
2023-08-02T18:00:09.008Z,26.33
2023-08-02T18:02:35.595Z,26.34
2023-08-02T18:05:02.004Z,26.34
2023-08-02T18:07:28.458Z,26.34
2023-08-02T18:09:54.857Z,26.34
2023-08-02T18:12:21.273Z,26.34
2023-08-02T18:14:47.711Z,26.34
2023-08-02T18:17:14.255Z,26.33
2023-08-02T18:19:40.785Z,26.33
2023-08-02T18:22:07.247Z,26.34
2023-08-02T18:24:38.729Z,26.34
2023-08-02T18:27:06.014Z,26.32
2023-08-02T18:29:32.480Z,26.32
2023-08-02T18:31:58.940Z,26.32
2023-08-02T18:34:25.446Z,26.31
2023-08-02T18:36:51.876Z,26.31
2023-08-02T18:39:18.349Z,26.31
2023-08-02T18:41:45.117Z,26.31
2023-08-02T18:44:11.965Z,26.30
2023-08-02T18:46:38.903Z,26.31
2023-08-02T18:49:05.461Z,26.29
2023-08-02T18:51:31.887Z,26.29
2023-08-02T18:53:58.366Z,26.29
2023-08-02T18:56:25.449Z,26.29
2023-08-02T18:58:53.028Z,26.29
2023-08-02T19:01:19.681Z,26.29
2023-08-02T19:03:46.372Z,26.28
2023-08-02T19:06:14.753Z,26.28
2023-08-02T19:08:44.855Z,26.27
2023-08-02T19:11:23.023Z,26.27
2023-08-02T19:13:50.032Z,26.26
2023-08-02T19:16:16.672Z,26.26
2023-08-02T19:18:43.649Z,26.26
2023-08-02T19:21:13.265Z,26.26
2023-08-02T19:23:42.397Z,26.25
2023-08-02T19:26:10.952Z,26.26
2023-08-02T19:28:37.394Z,26.26
2023-08-02T19:31:03.922Z,26.25
2023-08-02T19:33:32.124Z,26.25
2023-08-02T19:35:58.610Z,26.25
2023-08-02T19:38:25.103Z,26.25
2023-08-02T19:40:52.414Z,26.25
2023-08-02T19:43:18.863Z,26.25
2023-08-02T19:45:45.299Z,26.24
2023-08-02T19:48:11.733Z,26.24
2023-08-02T19:50:39.590Z,26.25
2023-08-02T19:53:13.054Z,26.24
2023-08-02T19:55:39.454Z,26.24
2023-08-02T19:58:06.936Z,26.25
2023-08-02T20:00:33.717Z,26.24
2023-08-02T20:03:00.209Z,26.24
2023-08-02T20:05:45.379Z,26.24
2023-08-02T20:08:14.731Z,26.23
2023-08-02T20:10:41.267Z,26.22
2023-08-02T20:13:13.916Z,26.23
2023-08-02T20:15:40.455Z,26.22
2023-08-02T20:18:08.830Z,26.22
2023-08-02T20:20:38.207Z,26.23
2023-08-02T20:23:06.490Z,26.21
2023-08-02T20:25:33.103Z,26.22
2023-08-02T20:27:59.586Z,26.22
2023-08-02T20:30:26.191Z,26.23
2023-08-02T20:32:54.622Z,26.23
2023-08-02T20:35:21.276Z,26.23
2023-08-02T20:37:47.796Z,26.23
2023-08-02T20:40:14.245Z,26.23
2023-08-02T20:42:40.681Z,26.23
2023-08-02T20:45:11.864Z,26.22
2023-08-02T20:47:38.636Z,26.22
2023-08-02T20:50:12.685Z,26.21
2023-08-02T20:52:42.333Z,26.21
2023-08-02T20:55:09.627Z,26.21
2023-08-02T20:57:36.108Z,26.20
2023-08-02T21:00:06.559Z,26.21
2023-08-02T21:02:33.182Z,26.21
2023-08-02T21:04:59.650Z,26.20
2023-08-02T21:07:26.698Z,26.20
2023-08-02T21:09:56.018Z,26.20
2023-08-02T21:12:22.498Z,26.20
2023-08-02T21:14:49.875Z,26.19
2023-08-02T21:17:18.365Z,26.19
2023-08-02T21:19:44.857Z,26.18
2023-08-02T21:22:11.584Z,26.17
2023-08-02T21:24:38.290Z,26.17
2023-08-02T21:27:06.909Z,26.16
2023-08-02T21:29:34.528Z,26.17
2023-08-02T21:32:04.385Z,26.16
2023-08-02T21:34:30.927Z,26.15
2023-08-02T21:36:57.337Z,26.15
2023-08-02T21:39:23.713Z,26.15
2023-08-02T21:41:50.127Z,26.15
2023-08-02T21:44:18.212Z,26.14
2023-08-02T21:46:45.875Z,26.15
2023-08-02T21:49:13.728Z,26.14
2023-08-02T21:51:40.608Z,26.14
2023-08-02T21:54:07.078Z,26.13
2023-08-02T21:56:33.586Z,26.13
2023-08-02T21:59:01.361Z,26.13
2023-08-02T22:01:30.357Z,26.12
2023-08-02T22:03:57.404Z,26.12
2023-08-02T22:06:25.357Z,26.12
2023-08-02T22:08:52.737Z,26.12
2023-08-02T22:11:21.008Z,26.11
2023-08-02T22:13:48.217Z,26.10
2023-08-02T22:16:16.815Z,26.09
2023-08-02T22:18:43.840Z,26.09
2023-08-02T22:21:10.703Z,26.10
2023-08-02T22:23:37.137Z,26.09
2023-08-02T22:26:04.994Z,26.08
2023-08-02T22:28:31.827Z,26.08
2023-08-02T22:30:58.222Z,26.08
2023-08-02T22:33:24.663Z,26.08
2023-08-02T22:35:51.117Z,26.08
2023-08-02T22:38:17.518Z,26.07
2023-08-02T22:40:46.334Z,26.08
2023-08-02T22:43:13.039Z,26.06
2023-08-02T22:45:39.539Z,26.06
2023-08-02T22:48:29.663Z,26.05
2023-08-02T22:50:55.799Z,26.06
2023-08-02T22:53:23.036Z,26.06
2023-08-02T22:55:49.471Z,26.06
2023-08-02T22:58:15.861Z,26.05
2023-08-02T23:00:42.343Z,26.05
2023-08-02T23:03:26.004Z,26.04
2023-08-02T23:05:55.033Z,26.03
2023-08-02T23:08:21.834Z,26.04
2023-08-02T23:10:48.266Z,26.03
2023-08-02T23:13:23.381Z,26.02
2023-08-02T23:15:49.835Z,26.03
2023-08-02T23:18:17.945Z,26.03
2023-08-02T23:20:45.495Z,26.02
2023-08-02T23:23:21.183Z,26.02
2023-08-02T23:25:48.267Z,26.01
2023-08-02T23:28:15.690Z,26.02
2023-08-02T23:30:42.185Z,26.01
2023-08-02T23:33:12.341Z,26.01
2023-08-02T23:35:39.400Z,26.01
2023-08-02T23:38:06.060Z,26.01
2023-08-02T23:40:33.038Z,26.01
2023-08-02T23:42:59.562Z,26.00
2023-08-02T23:45:26.028Z,26.00
2023-08-02T23:47:52.505Z,26.00
2023-08-02T23:50:18.986Z,25.99
2023-08-02T23:52:45.450Z,25.99
2023-08-02T23:55:11.921Z,25.98
2023-08-02T23:57:38.354Z,25.98
